createdAt,value
2022-12-01T00:00:59.228Z,2.84
2022-12-01T00:03:25.974Z,2.82
2022-12-01T00:06:02.096Z,2.81
2022-12-01T00:08:28.945Z,2.81
2022-12-01T00:10:55.540Z,2.79
2022-12-01T00:13:21.827Z,2.80
2022-12-01T00:15:48.101Z,2.81
2022-12-01T00:18:14.368Z,2.80
2022-12-01T00:20:40.599Z,2.80
2022-12-01T00:23:06.833Z,2.79
2022-12-01T00:25:33.083Z,2.78
2022-12-01T00:27:59.340Z,2.82
2022-12-01T00:30:25.576Z,2.79
2022-12-01T00:32:51.837Z,2.80
2022-12-01T00:35:18.138Z,2.79
2022-12-01T00:37:44.378Z,2.78
2022-12-01T00:40:10.858Z,2.77
2022-12-01T00:42:37.343Z,2.78
2022-12-01T00:45:04.285Z,2.76
2022-12-01T00:47:30.566Z,2.78
2022-12-01T00:49:56.803Z,2.75
2022-12-01T00:52:23.074Z,2.75
2022-12-01T00:54:49.323Z,2.75
2022-12-01T00:57:15.570Z,2.77
2022-12-01T00:59:41.815Z,2.75
2022-12-01T01:02:08.250Z,2.75
2022-12-01T01:04:35.269Z,2.76
2022-12-01T01:07:01.972Z,2.77
2022-12-01T01:09:28.227Z,2.77
2022-12-01T01:11:54.511Z,2.72
2022-12-01T01:14:21.639Z,2.73
2022-12-01T01:16:48.549Z,2.69
2022-12-01T01:19:15.639Z,2.69
2022-12-01T01:21:41.928Z,2.69
2022-12-01T01:24:08.290Z,2.67
2022-12-01T01:26:35.453Z,2.67
2022-12-01T01:29:02.461Z,2.67
2022-12-01T01:31:29.496Z,2.66
2022-12-01T01:33:56.565Z,2.66
2022-12-01T01:36:23.134Z,2.67
2022-12-01T01:38:53.212Z,2.65
2022-12-01T01:41:19.671Z,2.65
2022-12-01T01:43:47.300Z,2.65
2022-12-01T01:46:17.668Z,2.65
2022-12-01T01:49:04.316Z,2.65
2022-12-01T01:51:35.622Z,2.65
2022-12-01T01:54:08.295Z,2.65
2022-12-01T01:56:35.351Z,2.67
2022-12-01T01:59:01.719Z,2.67
2022-12-01T02:01:28.107Z,2.67
2022-12-01T02:03:54.897Z,2.68
2022-12-01T02:06:22.509Z,2.65
2022-12-01T02:08:48.903Z,2.64
2022-12-01T02:11:17.991Z,2.63
2022-12-01T02:14:03.485Z,2.63
2022-12-01T02:16:48.591Z,2.62
2022-12-01T02:19:30.290Z,2.60
2022-12-01T02:22:14.976Z,2.61
2022-12-01T02:25:00.681Z,2.60
2022-12-01T02:27:39.176Z,2.63
2022-12-01T02:30:16.802Z,2.64
2022-12-01T02:32:48.769Z,2.67
2022-12-01T02:35:18.874Z,2.66
2022-12-01T02:37:57.431Z,2.69
2022-12-01T02:40:31.451Z,2.69
2022-12-01T02:43:17.979Z,2.71
2022-12-01T02:45:54.921Z,2.74
2022-12-01T02:48:34.658Z,2.73
2022-12-01T02:51:03.020Z,2.77
2022-12-01T02:53:29.528Z,2.77
2022-12-01T02:55:57.751Z,2.76
2022-12-01T02:58:24.354Z,2.78
2022-12-01T03:01:05.029Z,2.77
2022-12-01T03:03:47.510Z,2.77
2022-12-01T03:06:20.270Z,2.77
2022-12-01T03:08:46.474Z,2.77
2022-12-01T03:11:26.986Z,2.77
2022-12-01T03:14:08.745Z,2.76
2022-12-01T03:16:44.284Z,2.74
2022-12-01T03:19:22.015Z,2.72
2022-12-01T03:21:55.331Z,2.70
2022-12-01T03:24:23.761Z,2.71
2022-12-01T03:26:55.395Z,2.71
2022-12-01T03:29:24.944Z,2.69
2022-12-01T03:31:53.818Z,2.68
2022-12-01T03:34:24.169Z,2.68
2022-12-01T03:36:53.528Z,2.68
2022-12-01T03:39:26.431Z,2.68
2022-12-01T03:42:01.690Z,2.70
2022-12-01T03:44:36.846Z,2.67
2022-12-01T03:47:08.621Z,2.68
2022-12-01T03:49:35.709Z,2.68
2022-12-01T03:52:37.776Z,2.70
2022-12-01T03:55:11.961Z,2.70
2022-12-01T03:57:42.162Z,2.70
2022-12-01T04:00:11.168Z,2.70
2022-12-01T04:02:38.055Z,2.72
2022-12-01T04:05:05.195Z,2.72
2022-12-01T04:07:31.568Z,2.73
2022-12-01T04:09:57.880Z,2.72
2022-12-01T04:12:29.920Z,2.69
2022-12-01T04:14:57.115Z,2.71
2022-12-01T04:17:23.852Z,2.68
2022-12-01T04:19:50.369Z,2.66
2022-12-01T04:22:17.096Z,2.64
2022-12-01T04:24:43.495Z,2.64
2022-12-01T04:27:09.841Z,2.64
2022-12-01T04:29:36.104Z,2.63
2022-12-01T04:32:02.375Z,2.64
2022-12-01T04:34:28.639Z,2.64
2022-12-01T04:36:55.225Z,2.64
2022-12-01T04:39:21.563Z,2.64
2022-12-01T04:41:48.049Z,2.63
2022-12-01T04:44:14.740Z,2.65
2022-12-01T04:46:41.246Z,2.64
2022-12-01T04:49:07.541Z,2.62
2022-12-01T04:51:33.816Z,2.59
2022-12-01T04:54:01.120Z,2.58
2022-12-01T04:56:27.367Z,2.58
2022-12-01T04:58:53.700Z,2.58
2022-12-01T05:01:20.085Z,2.57
2022-12-01T05:03:51.082Z,2.57
2022-12-01T05:06:18.830Z,2.55
2022-12-01T05:08:45.323Z,2.56
2022-12-01T05:11:12.676Z,2.56
2022-12-01T05:13:40.148Z,2.53
2022-12-01T05:16:11.195Z,2.51
2022-12-01T05:18:37.784Z,2.50
2022-12-01T05:21:05.242Z,2.49
2022-12-01T05:23:32.661Z,2.48
2022-12-01T05:25:59.006Z,2.49
2022-12-01T05:28:26.561Z,2.45
2022-12-01T05:30:54.071Z,2.42
2022-12-01T05:33:21.127Z,2.42
2022-12-01T05:35:47.632Z,2.42
2022-12-01T05:38:13.896Z,2.41
2022-12-01T05:40:40.258Z,2.40
2022-12-01T05:43:06.896Z,2.38
2022-12-01T05:45:33.830Z,2.37
2022-12-01T05:48:00.996Z,2.41
2022-12-01T05:50:28.067Z,2.44
2022-12-01T05:52:54.354Z,2.45
2022-12-01T05:55:20.624Z,2.48
2022-12-01T05:57:46.997Z,2.47
2022-12-01T06:00:13.872Z,2.49
2022-12-01T06:02:40.641Z,2.48
2022-12-01T06:05:07.428Z,2.50
2022-12-01T06:07:35.561Z,2.50
2022-12-01T06:10:02.343Z,2.49
2022-12-01T06:12:28.820Z,2.47
2022-12-01T06:14:55.054Z,2.44
2022-12-01T06:17:21.705Z,2.42
2022-12-01T06:19:48.384Z,2.42
2022-12-01T06:22:14.859Z,2.45
2022-12-01T06:24:41.114Z,2.46
2022-12-01T06:27:07.364Z,2.45
2022-12-01T06:29:35.670Z,2.44
2022-12-01T06:32:05.468Z,2.44
2022-12-01T06:34:31.761Z,2.43
2022-12-01T06:36:58.004Z,2.44
2022-12-01T06:39:24.287Z,2.46
2022-12-01T06:41:50.626Z,2.45
2022-12-01T06:44:16.885Z,2.45
2022-12-01T06:46:43.176Z,2.46
2022-12-01T06:49:13.028Z,2.47
2022-12-01T06:51:39.580Z,2.48
2022-12-01T06:54:06.067Z,2.46
2022-12-01T06:56:32.363Z,2.45
2022-12-01T06:58:59.080Z,2.44
2022-12-01T07:01:26.019Z,2.44
2022-12-01T07:03:52.340Z,2.44
2022-12-01T07:06:18.578Z,2.46
2022-12-01T07:08:44.943Z,2.47
2022-12-01T07:11:12.724Z,2.50
2022-12-01T07:13:39.569Z,2.52
2022-12-01T07:16:06.712Z,2.50
2022-12-01T07:18:33.408Z,2.49
2022-12-01T07:21:00.949Z,2.50
2022-12-01T07:23:27.225Z,2.50
2022-12-01T07:26:03.880Z,2.51
2022-12-01T07:28:30.208Z,2.50
2022-12-01T07:31:02.938Z,2.50
2022-12-01T07:33:29.271Z,2.50
2022-12-01T07:35:55.520Z,2.52
2022-12-01T07:38:22.399Z,2.49
2022-12-01T07:40:48.809Z,2.47
2022-12-01T07:43:15.057Z,2.46
2022-12-01T07:45:41.356Z,2.45
2022-12-01T07:48:07.643Z,2.44
2022-12-01T07:50:33.893Z,2.43
2022-12-01T07:53:00.270Z,2.43
2022-12-01T07:55:26.536Z,2.42
2022-12-01T07:57:53.549Z,2.42
2022-12-01T08:00:20.005Z,2.43
2022-12-01T08:02:48.208Z,2.45
2022-12-01T08:05:14.776Z,2.48
2022-12-01T08:07:41.118Z,2.49
2022-12-01T08:10:07.691Z,2.48
2022-12-01T08:12:33.949Z,2.49
2022-12-01T08:15:00.192Z,2.50
2022-12-01T08:17:26.489Z,2.52
2022-12-01T08:19:52.809Z,2.54
2022-12-01T08:22:19.101Z,2.55
2022-12-01T08:24:45.382Z,2.56
2022-12-01T08:27:11.658Z,2.57
2022-12-01T08:29:37.902Z,2.59
2022-12-01T08:32:04.250Z,2.60
2022-12-01T08:34:30.569Z,2.64
2022-12-01T08:36:56.818Z,2.66
2022-12-01T08:39:23.066Z,2.67
2022-12-01T08:41:49.313Z,2.66
2022-12-01T08:44:15.563Z,2.67
2022-12-01T08:46:42.028Z,2.67
2022-12-01T08:49:08.402Z,2.64
2022-12-01T08:51:34.701Z,2.64
2022-12-01T08:54:00.938Z,2.67
2022-12-01T08:56:32.324Z,2.69
2022-12-01T08:58:58.988Z,2.69
2022-12-01T09:01:28.145Z,2.70
2022-12-01T09:04:06.217Z,2.74
2022-12-01T09:06:40.489Z,2.76
2022-12-01T09:09:07.749Z,2.76
2022-12-01T09:11:34.093Z,2.73
2022-12-01T09:14:03.787Z,2.76
2022-12-01T09:16:30.203Z,2.79
2022-12-01T09:18:56.574Z,2.75
2022-12-01T09:21:24.452Z,2.75
2022-12-01T09:23:50.806Z,2.80
2022-12-01T09:26:18.938Z,2.81
2022-12-01T09:28:46.097Z,2.83
2022-12-01T09:31:13.133Z,2.85
2022-12-01T09:33:39.528Z,2.81
2022-12-01T09:36:06.713Z,2.82
2022-12-01T09:38:34.097Z,2.90
2022-12-01T09:41:02.109Z,2.93
2022-12-01T09:43:30.212Z,2.94
2022-12-01T09:46:02.275Z,2.94
2022-12-01T09:48:34.448Z,2.93
2022-12-01T09:51:00.928Z,2.97
2022-12-01T09:53:28.887Z,2.99
2022-12-01T09:56:02.532Z,3.05
2022-12-01T09:58:32.873Z,3.12
2022-12-01T10:01:00.189Z,3.11
2022-12-01T10:03:27.033Z,3.15
2022-12-01T10:06:29.393Z,3.19
2022-12-01T10:08:57.853Z,3.15
2022-12-01T10:11:30.989Z,3.16
2022-12-01T10:13:58.393Z,3.17
2022-12-01T10:16:29.872Z,3.15
2022-12-01T10:19:05.907Z,3.14
2022-12-01T10:21:55.157Z,3.17
2022-12-01T10:24:24.372Z,3.14
2022-12-01T10:26:59.286Z,3.15
2022-12-01T10:29:28.487Z,3.08
2022-12-01T10:31:57.777Z,3.04
2022-12-01T10:34:28.716Z,3.03
2022-12-01T10:36:55.744Z,3.04
2022-12-01T10:39:30.493Z,3.03
2022-12-01T10:42:03.978Z,3.01
2022-12-01T10:44:30.573Z,3.02
2022-12-01T10:46:57.040Z,3.03
2022-12-01T10:49:34.700Z,3.08
2022-12-01T10:52:00.961Z,3.05
2022-12-01T10:54:32.807Z,3.10
2022-12-01T10:56:59.282Z,3.15
2022-12-01T10:59:28.197Z,3.16
2022-12-01T11:01:55.231Z,3.14
2022-12-01T11:04:27.520Z,3.11
2022-12-01T11:06:54.011Z,3.09
2022-12-01T11:09:26.453Z,3.12
2022-12-01T11:12:00.487Z,3.14
2022-12-01T11:14:45.933Z,3.14
2022-12-01T11:17:35.455Z,3.16
2022-12-01T11:20:20.748Z,3.17
2022-12-01T11:22:47.102Z,3.14
2022-12-01T11:25:20.718Z,3.12
2022-12-01T11:27:52.668Z,3.11
2022-12-01T11:30:26.242Z,3.05
2022-12-01T11:32:58.053Z,3.06
2022-12-01T11:35:25.644Z,3.06
2022-12-01T11:38:21.121Z,3.07
2022-12-01T11:40:49.898Z,3.10
2022-12-01T11:43:28.459Z,3.11
2022-12-01T11:45:56.061Z,3.14
2022-12-01T11:48:22.857Z,3.16
2022-12-01T11:51:08.936Z,3.16
2022-12-01T11:53:39.457Z,3.23
2022-12-01T11:56:15.004Z,3.29
2022-12-01T11:58:42.082Z,3.25
2022-12-01T12:01:18.970Z,3.31
2022-12-01T12:04:02.229Z,3.30
2022-12-01T12:06:48.747Z,3.30
2022-12-01T12:09:23.772Z,3.27
2022-12-01T12:11:54.540Z,3.34
2022-12-01T12:14:56.177Z,3.33
2022-12-01T12:17:28.291Z,3.33
2022-12-01T12:20:23.788Z,3.26
2022-12-01T12:22:55.195Z,3.21
2022-12-01T12:25:57.410Z,3.18
2022-12-01T12:28:32.627Z,3.17
2022-12-01T12:31:01.783Z,3.12
2022-12-01T12:33:43.975Z,3.13
2022-12-01T12:36:10.192Z,3.22
2022-12-01T12:38:46.196Z,3.25
2022-12-01T12:41:30.636Z,3.31
2022-12-01T12:44:06.152Z,3.25
2022-12-01T12:46:35.468Z,3.29
2022-12-01T12:49:21.014Z,3.27
2022-12-01T12:51:51.525Z,3.25
2022-12-01T12:54:25.941Z,3.24
2022-12-01T12:56:55.419Z,3.20
2022-12-01T12:59:44.677Z,3.18
2022-12-01T13:02:18.611Z,3.10
2022-12-01T13:05:06.819Z,3.10
2022-12-01T13:07:44.859Z,3.14
2022-12-01T13:10:16.223Z,3.12
2022-12-01T13:12:45.678Z,3.05
2022-12-01T13:15:31.462Z,3.07
2022-12-01T13:18:01.923Z,3.12
2022-12-01T13:20:29.210Z,3.20
2022-12-01T13:22:57.728Z,3.24
2022-12-01T13:25:29.590Z,3.24
2022-12-01T13:27:58.029Z,3.22
2022-12-01T13:30:25.514Z,3.16
2022-12-01T13:33:05.353Z,3.11
2022-12-01T13:35:36.127Z,3.06
2022-12-01T13:38:21.190Z,3.06
2022-12-01T13:40:48.346Z,3.04
2022-12-01T13:43:21.832Z,3.01
2022-12-01T13:45:48.677Z,2.95
2022-12-01T13:48:50.011Z,2.98
2022-12-01T13:51:16.498Z,2.94
2022-12-01T13:54:02.928Z,2.93
2022-12-01T13:56:58.623Z,2.88
2022-12-01T13:59:41.552Z,2.86
2022-12-01T14:02:16.499Z,2.82
2022-12-01T14:04:42.865Z,2.79
2022-12-01T14:07:13.529Z,2.76
2022-12-01T14:09:40.645Z,2.68
2022-12-01T14:12:15.795Z,2.65
2022-12-01T14:14:46.903Z,2.55
2022-12-01T14:17:27.824Z,2.49
2022-12-01T14:19:54.967Z,2.34
2022-12-01T14:22:32.423Z,2.28
2022-12-01T14:24:58.977Z,2.19
2022-12-01T14:27:42.079Z,2.12
2022-12-01T14:30:27.188Z,2.05
2022-12-01T14:33:13.388Z,1.95
2022-12-01T14:35:39.900Z,1.89
2022-12-01T14:38:07.090Z,1.84
2022-12-01T14:40:33.720Z,1.82
2022-12-01T14:43:19.713Z,1.79
2022-12-01T14:45:50.539Z,1.78
2022-12-01T14:48:23.836Z,1.75
2022-12-01T14:50:52.005Z,1.72
2022-12-01T14:53:24.095Z,1.68
2022-12-01T14:55:52.840Z,1.68
2022-12-01T14:58:24.000Z,1.65
2022-12-01T15:01:00.644Z,1.67
2022-12-01T15:03:32.119Z,1.65
2022-12-01T15:05:58.514Z,1.67
2022-12-01T15:08:41.999Z,1.65
2022-12-01T15:11:20.552Z,1.67
2022-12-01T15:13:51.202Z,1.67
2022-12-01T15:16:19.288Z,1.71
2022-12-01T15:18:45.918Z,1.73
2022-12-01T15:21:14.372Z,1.75
2022-12-01T15:23:53.715Z,1.77
2022-12-01T15:26:21.038Z,1.79
2022-12-01T15:28:47.337Z,1.84
2022-12-01T15:31:13.706Z,1.85
2022-12-01T15:33:48.594Z,1.90
2022-12-01T15:36:15.131Z,1.94
2022-12-01T15:38:45.082Z,1.95
2022-12-01T15:41:32.710Z,1.93
2022-12-01T15:44:01.863Z,1.93
2022-12-01T15:46:29.649Z,1.94
2022-12-01T15:49:14.633Z,1.95
2022-12-01T15:54:23.323Z,1.99
2022-12-01T15:56:56.792Z,1.97
2022-12-01T15:59:28.717Z,1.97
2022-12-01T16:01:56.733Z,1.95
2022-12-01T16:04:25.000Z,1.98
2022-12-01T16:07:02.378Z,2.00
2022-12-01T16:09:31.372Z,1.97
2022-12-01T16:12:07.064Z,1.95
2022-12-01T16:14:33.766Z,1.94
2022-12-01T16:17:00.124Z,1.96
2022-12-01T16:19:30.706Z,1.98
2022-12-01T16:22:04.590Z,1.97
2022-12-01T16:24:30.863Z,1.99
2022-12-01T16:26:59.936Z,1.99
2022-12-01T16:29:28.708Z,1.99
2022-12-01T16:32:19.323Z,1.98
2022-12-01T16:34:57.400Z,1.97
2022-12-01T16:37:24.070Z,1.94
2022-12-01T16:39:50.404Z,1.97
2022-12-01T16:42:18.000Z,1.91
2022-12-01T16:44:48.268Z,1.89
2022-12-01T16:47:19.682Z,1.88
2022-12-01T16:49:46.285Z,1.88
2022-12-01T16:54:58.903Z,1.82
2022-12-01T16:57:25.174Z,1.83
2022-12-01T16:59:51.444Z,1.82
2022-12-01T17:02:17.923Z,1.81
2022-12-01T17:04:44.296Z,1.80
2022-12-01T17:07:10.539Z,1.79
2022-12-01T17:09:36.868Z,1.77
2022-12-01T17:12:03.191Z,1.75
2022-12-01T17:14:29.587Z,1.78
2022-12-01T17:16:58.373Z,1.79
2022-12-01T17:19:24.728Z,1.77
2022-12-01T17:21:50.981Z,1.78
2022-12-01T17:24:19.174Z,1.78
2022-12-01T17:26:45.728Z,1.79
2022-12-01T17:29:11.982Z,1.80
2022-12-01T17:31:38.308Z,1.81
2022-12-01T17:34:04.691Z,1.81
2022-12-01T17:36:30.940Z,1.84
2022-12-01T17:38:58.526Z,1.84
2022-12-01T17:41:26.768Z,1.85
2022-12-01T17:43:53.007Z,1.83
2022-12-01T17:46:19.335Z,1.83
2022-12-01T17:48:46.315Z,1.83
2022-12-01T17:51:13.242Z,1.78
2022-12-01T17:53:40.235Z,1.79
2022-12-01T17:56:08.044Z,1.78
2022-12-01T17:58:34.645Z,1.76
2022-12-01T18:01:00.947Z,1.78
2022-12-01T18:03:27.200Z,1.80
2022-12-01T18:05:57.513Z,1.81
2022-12-01T18:08:24.418Z,1.83
2022-12-01T18:10:50.698Z,1.84
2022-12-01T18:13:18.473Z,1.88
2022-12-01T18:15:46.624Z,1.91
2022-12-01T18:18:12.903Z,1.93
2022-12-01T18:20:41.183Z,1.93
2022-12-01T18:23:07.474Z,1.92
2022-12-01T18:25:34.821Z,1.93
2022-12-01T18:28:01.245Z,1.94
2022-12-01T18:30:27.494Z,1.90
2022-12-01T18:32:53.839Z,1.94
2022-12-01T18:35:20.099Z,1.94
2022-12-01T18:37:46.367Z,1.94
2022-12-01T18:40:13.008Z,1.95
2022-12-01T18:42:39.365Z,1.95
2022-12-01T18:45:05.786Z,1.96
2022-12-01T18:47:32.040Z,1.96
2022-12-01T18:49:58.283Z,1.95
2022-12-01T18:52:24.604Z,1.95
2022-12-01T18:54:51.154Z,1.91
2022-12-01T18:57:18.968Z,1.91
2022-12-01T18:59:45.651Z,1.89
2022-12-01T19:02:11.932Z,1.90
2022-12-01T19:04:38.194Z,1.89
2022-12-01T19:07:04.464Z,1.90
2022-12-01T19:09:33.938Z,1.89
2022-12-01T19:12:00.188Z,1.90
2022-12-01T19:14:27.972Z,1.87
2022-12-01T19:16:55.579Z,1.88
2022-12-01T19:19:22.011Z,1.90
2022-12-01T19:21:49.713Z,1.90
2022-12-01T19:24:15.983Z,1.90
2022-12-01T19:26:42.309Z,1.88
2022-12-01T19:29:08.577Z,1.84
2022-12-01T19:31:35.869Z,1.83
2022-12-01T19:34:03.616Z,1.79
2022-12-01T19:36:29.931Z,1.80
2022-12-01T19:38:57.614Z,1.77
2022-12-01T19:41:25.251Z,1.74
2022-12-01T19:43:52.472Z,1.71
2022-12-01T19:46:20.270Z,1.71
2022-12-01T19:48:47.334Z,1.69
2022-12-01T19:51:17.700Z,1.67
2022-12-01T19:53:44.000Z,1.66
2022-12-01T19:56:10.265Z,1.64
2022-12-01T19:58:36.533Z,1.64
2022-12-01T20:01:07.409Z,1.67
2022-12-01T20:03:33.909Z,1.66
2022-12-01T20:06:00.991Z,1.68
2022-12-01T20:08:27.231Z,1.67
2022-12-01T20:10:53.832Z,1.70
2022-12-01T20:13:20.077Z,1.69
2022-12-01T20:15:46.325Z,1.69
2022-12-01T20:18:14.538Z,1.67
2022-12-01T20:20:40.813Z,1.67
2022-12-01T20:23:07.063Z,1.65
2022-12-01T20:25:34.167Z,1.67
2022-12-01T20:28:00.810Z,1.66
2022-12-01T20:30:27.094Z,1.67
2022-12-01T20:32:53.470Z,1.65
2022-12-01T20:35:19.941Z,1.65
2022-12-01T20:37:46.204Z,1.65
2022-12-01T20:40:12.599Z,1.63
2022-12-01T20:42:39.627Z,1.62
2022-12-01T20:45:07.212Z,1.61
2022-12-01T20:47:36.547Z,1.58
2022-12-01T20:50:04.499Z,1.58
2022-12-01T20:52:30.808Z,1.57
2022-12-01T20:54:57.121Z,1.56
2022-12-01T20:57:23.404Z,1.58
2022-12-01T20:59:49.740Z,1.59
2022-12-01T21:02:16.067Z,1.60
2022-12-01T21:04:42.445Z,1.57
2022-12-01T21:07:08.710Z,1.56
2022-12-01T21:09:34.989Z,1.53
2022-12-01T21:12:21.110Z,1.51
2022-12-01T21:14:50.584Z,1.52
2022-12-01T21:17:26.401Z,1.50
2022-12-01T21:20:01.403Z,1.48
2022-12-01T21:22:27.704Z,1.45
2022-12-01T21:25:01.239Z,1.42
2022-12-01T21:27:28.404Z,1.38
2022-12-01T21:29:55.274Z,1.35
2022-12-01T21:32:32.070Z,1.35
2022-12-01T21:35:01.188Z,1.31
2022-12-01T21:37:27.848Z,1.31
2022-12-01T21:39:56.116Z,1.31
2022-12-01T21:42:26.086Z,1.28
2022-12-01T21:44:52.687Z,1.26
2022-12-01T21:47:19.157Z,1.26
2022-12-01T21:49:45.759Z,1.20
2022-12-01T21:52:16.297Z,1.17
2022-12-01T21:54:42.721Z,1.16
2022-12-01T21:57:29.278Z,1.14
2022-12-01T21:59:58.432Z,1.15
2022-12-01T22:02:33.559Z,1.16
2022-12-01T22:04:59.925Z,1.16
2022-12-01T22:07:26.921Z,1.13
2022-12-01T22:09:53.949Z,1.11
2022-12-01T22:12:20.176Z,1.10
2022-12-01T22:14:46.453Z,1.11
2022-12-01T22:17:12.707Z,1.11
2022-12-01T22:19:42.274Z,1.13
2022-12-01T22:22:08.488Z,1.07
2022-12-01T22:24:40.863Z,1.09
2022-12-01T22:27:19.209Z,1.05
2022-12-01T22:29:46.515Z,1.04
2022-12-01T22:32:12.731Z,1.03
2022-12-01T22:34:39.399Z,1.01
2022-12-01T22:37:22.318Z,1.02
2022-12-01T22:39:51.274Z,1.03
2022-12-01T22:42:21.027Z,1.06
2022-12-01T22:44:47.583Z,1.06
2022-12-01T22:47:14.367Z,1.03
2022-12-01T22:49:42.079Z,1.03
2022-12-01T22:52:14.339Z,1.01
2022-12-01T22:54:43.044Z,0.98
2022-12-01T22:57:09.324Z,0.97
2022-12-01T22:59:37.397Z,0.92
2022-12-01T23:02:16.511Z,0.94
2022-12-01T23:04:45.722Z,0.94
2022-12-01T23:07:30.248Z,0.94
2022-12-01T23:09:58.176Z,0.93
2022-12-01T23:12:29.945Z,0.89
2022-12-01T23:14:57.846Z,0.88
2022-12-01T23:17:25.638Z,0.88
2022-12-01T23:19:53.064Z,0.84
2022-12-01T23:22:20.010Z,0.81
2022-12-01T23:24:46.300Z,0.75
2022-12-01T23:27:13.854Z,0.75
2022-12-01T23:29:40.131Z,0.79
2022-12-01T23:32:06.377Z,0.72
2022-12-01T23:34:33.712Z,0.71
2022-12-01T23:37:00.001Z,0.67
2022-12-01T23:39:30.084Z,0.67
2022-12-01T23:41:56.349Z,0.65
2022-12-01T23:44:36.344Z,0.69
2022-12-01T23:47:03.144Z,0.67
2022-12-01T23:49:31.229Z,0.66
2022-12-01T23:51:59.261Z,0.65
2022-12-01T23:54:32.100Z,0.62
2022-12-01T23:57:01.132Z,0.60
2022-12-01T23:59:28.648Z,0.60
